KAOH

Lima Allen County Airport

Lima, Ohio, USA
METAR KAOH 201153Z AUTO 25009KT 9SM OVC008 09/07 A2984 RMK AO2 SLP107 70001 T00890072 10100 20089 51001 TSNO
Observed Flight Rules
Oct-20 @ 11:53 UTC (58 minutes ago) Instrument Flight Rules
Wind Visibility Clouds
250° at 9 knots 9 miles
  • Overcast at 800' AGL
Temperatures Readings
Current 9°C / 48°F
Dewpoint 7°C / 45°F
Humidity 87%
Altimeter 29.84" Hg
Pressure 1010.7 hPa
Elevation 296
METAR KAOH 201153Z AUTO 25009KT 9SM OVC008 09/07 A2984 RMK AO2 SLP107 70001 T00890072 10100 20089 51001 TSNO
Observed Flight Rules
Oct-20 @ 11:53 UTC
(58 minutes ago)
IFR
Wind Visibility
250° at 9 knots 9 miles
Clouds
  • Overcast at 800' AGL
Temperature Dewpoint
9°C / 48°F 7°C / 45°F
Humidity Altimeter Pressure
87% 29.84" Hg 1010.7 hPa